createdAt,value
2023-05-22T00:01:59.373Z,20.87
2023-05-22T00:04:29.994Z,20.85
2023-05-22T00:06:56.601Z,20.85
2023-05-22T00:09:25.027Z,20.74
2023-05-22T00:11:51.899Z,20.75
2023-05-22T00:14:18.899Z,20.69
2023-05-22T00:16:46.316Z,20.69
2023-05-22T00:19:16.424Z,20.56
2023-05-22T00:21:43.575Z,20.55
2023-05-22T00:24:10.073Z,20.49
2023-05-22T00:26:36.538Z,20.51
2023-05-22T00:29:03.614Z,20.42
2023-05-22T00:31:30.125Z,20.45
2023-05-22T00:33:56.617Z,20.41
2023-05-22T00:36:23.400Z,20.40
2023-05-22T00:38:49.872Z,20.39
2023-05-22T00:41:16.506Z,20.35
2023-05-22T00:43:45.081Z,20.37
2023-05-22T00:46:12.600Z,20.35
2023-05-22T00:48:39.352Z,20.32
2023-05-22T00:51:07.164Z,20.28
2023-05-22T00:53:33.672Z,20.34
2023-05-22T00:56:00.973Z,20.17
2023-05-22T00:58:27.722Z,20.20
2023-05-22T01:00:55.471Z,20.23
2023-05-22T01:03:26.603Z,20.19
2023-05-22T01:05:54.787Z,20.13
2023-05-22T01:08:21.620Z,20.16
2023-05-22T01:10:54.336Z,20.14
2023-05-22T01:13:34.219Z,20.15
2023-05-22T01:16:18.827Z,20.01
2023-05-22T01:19:08.843Z,20.00
2023-05-22T01:21:54.190Z,20.09
2023-05-22T01:24:43.364Z,20.03
2023-05-22T01:27:39.500Z,19.85
2023-05-22T01:30:42.596Z,19.90
2023-05-22T01:33:12.219Z,19.84
2023-05-22T01:35:40.558Z,19.89
2023-05-22T01:38:07.763Z,19.75
2023-05-22T01:40:34.474Z,19.78
2023-05-22T01:43:01.248Z,19.78
2023-05-22T01:45:27.817Z,19.65
2023-05-22T01:47:54.406Z,19.58
2023-05-22T01:50:21.144Z,19.56
2023-05-22T01:53:12.648Z,19.53
2023-05-22T01:55:46.219Z,19.48
2023-05-22T01:58:39.404Z,19.50
2023-05-22T02:01:10.045Z,19.32
2023-05-22T02:03:39.504Z,19.38
2023-05-22T02:06:08.766Z,19.38
2023-05-22T02:08:38.832Z,19.42
2023-05-22T02:11:06.338Z,19.29
2023-05-22T02:13:33.986Z,19.33
2023-05-22T02:16:00.985Z,19.20
2023-05-22T02:18:31.469Z,19.08
2023-05-22T02:20:59.125Z,19.22
2023-05-22T02:23:26.632Z,19.18
2023-05-22T02:25:56.010Z,19.00
2023-05-22T02:28:22.490Z,19.10
2023-05-22T02:30:49.442Z,18.97
2023-05-22T02:33:17.926Z,19.01
2023-05-22T02:35:47.554Z,18.82
2023-05-22T02:38:14.078Z,18.92
2023-05-22T02:40:40.988Z,18.81
2023-05-22T02:43:07.804Z,18.76
2023-05-22T02:45:34.366Z,18.73
2023-05-22T02:48:03.495Z,18.68
2023-05-22T02:50:30.229Z,18.64
2023-05-22T02:52:56.703Z,18.62
2023-05-22T02:55:23.206Z,18.64
2023-05-22T02:57:49.690Z,18.44
2023-05-22T03:00:16.937Z,18.47
2023-05-22T03:02:43.547Z,18.53
2023-05-22T03:05:10.149Z,18.45
2023-05-22T03:07:37.130Z,18.32
2023-05-22T03:10:03.764Z,18.30
2023-05-22T03:12:30.485Z,18.32
2023-05-22T03:14:56.972Z,18.39
2023-05-22T03:17:23.495Z,18.41
2023-05-22T03:19:50.071Z,18.38
2023-05-22T03:22:18.620Z,18.31
2023-05-22T03:24:45.744Z,18.25
2023-05-22T03:27:15.031Z,18.29
2023-05-22T03:29:41.986Z,18.27
2023-05-22T03:32:08.462Z,18.32
2023-05-22T03:34:35.971Z,18.34
2023-05-22T03:37:03.458Z,18.42
2023-05-22T03:39:30.634Z,18.34
2023-05-22T03:42:02.018Z,18.30
2023-05-22T03:44:29.180Z,18.38
2023-05-22T03:46:55.882Z,18.45
2023-05-22T03:49:22.377Z,18.40
2023-05-22T03:51:48.839Z,18.45
2023-05-22T03:54:15.972Z,18.37
2023-05-22T03:56:43.294Z,18.46
2023-05-22T03:59:09.926Z,18.41
2023-05-22T04:01:39.371Z,18.39
2023-05-22T04:04:05.932Z,18.35
2023-05-22T04:06:33.041Z,18.42
2023-05-22T04:09:00.996Z,18.39
2023-05-22T04:11:30.375Z,18.51
2023-05-22T04:13:56.847Z,18.53
2023-05-22T04:16:23.612Z,18.56
2023-05-22T04:18:50.190Z,18.56
2023-05-22T04:21:17.481Z,18.55
2023-05-22T04:23:45.576Z,18.63
2023-05-22T04:26:12.037Z,18.68
2023-05-22T04:28:39.203Z,18.74
2023-05-22T04:31:06.574Z,18.67
2023-05-22T04:33:34.371Z,18.72
2023-05-22T04:36:02.293Z,18.85
2023-05-22T04:38:28.747Z,18.70
2023-05-22T04:40:55.184Z,18.78
2023-05-22T04:43:23.441Z,18.72
2023-05-22T04:45:51.528Z,18.76
2023-05-22T04:48:19.438Z,18.84
2023-05-22T04:50:46.399Z,18.86
2023-05-22T04:53:13.112Z,18.76
2023-05-22T04:55:39.866Z,18.79
2023-05-22T04:58:06.942Z,18.78
2023-05-22T05:00:33.419Z,18.81
2023-05-22T05:03:00.505Z,18.76
2023-05-22T05:05:27.293Z,18.66
2023-05-22T05:07:54.604Z,18.65
2023-05-22T05:10:21.239Z,18.62
2023-05-22T05:12:47.772Z,18.60
2023-05-22T05:15:14.291Z,18.62
2023-05-22T05:17:41.154Z,18.63
2023-05-22T05:20:08.337Z,18.61
2023-05-22T05:22:34.901Z,18.59
2023-05-22T05:25:03.657Z,18.70
2023-05-22T05:27:30.217Z,18.69
2023-05-22T05:29:57.006Z,18.86
2023-05-22T05:32:28.873Z,18.88
2023-05-22T05:35:23.779Z,19.05
2023-05-22T05:38:01.691Z,19.11
2023-05-22T05:40:29.184Z,19.25
2023-05-22T05:42:56.221Z,19.47
2023-05-22T05:45:26.053Z,19.53
2023-05-22T05:47:53.128Z,19.86
2023-05-22T05:50:19.684Z,20.07
2023-05-22T05:52:46.952Z,20.20
2023-05-22T05:55:16.752Z,20.23
2023-05-22T05:57:43.267Z,20.13
2023-05-22T06:00:14.939Z,20.24
2023-05-22T06:02:41.926Z,20.35
2023-05-22T06:05:21.697Z,20.37
2023-05-22T06:07:52.487Z,20.39
2023-05-22T06:10:18.991Z,20.38
2023-05-22T06:12:57.462Z,20.73
2023-05-22T06:15:24.561Z,20.82
2023-05-22T06:17:51.092Z,21.00
2023-05-22T06:20:17.611Z,20.82
2023-05-22T06:22:44.127Z,21.06
2023-05-22T06:25:10.939Z,21.07
2023-05-22T06:27:37.446Z,20.93
2023-05-22T06:30:05.473Z,20.96
2023-05-22T06:32:37.391Z,21.10
2023-05-22T06:35:04.172Z,21.22
2023-05-22T06:37:33.009Z,21.16
2023-05-22T06:40:00.595Z,21.24
2023-05-22T06:42:32.991Z,21.43
2023-05-22T06:45:19.755Z,21.45
2023-05-22T06:48:01.762Z,21.43
2023-05-22T06:50:31.066Z,21.66
2023-05-22T06:52:57.553Z,21.77
2023-05-22T06:55:25.077Z,21.69
2023-05-22T06:58:02.563Z,21.55
2023-05-22T07:00:30.531Z,21.83
2023-05-22T07:03:04.811Z,21.72
2023-05-22T07:05:38.246Z,21.80
2023-05-22T07:08:06.174Z,21.82
2023-05-22T07:10:33.267Z,22.11
2023-05-22T07:12:59.898Z,22.21
2023-05-22T07:15:26.661Z,22.35
2023-05-22T07:17:56.288Z,22.20
2023-05-22T07:20:22.846Z,22.26
2023-05-22T07:23:21.466Z,22.19
2023-05-22T07:25:49.376Z,22.20
2023-05-22T07:28:16.957Z,22.48
2023-05-22T07:30:53.110Z,22.38
2023-05-22T07:33:20.412Z,22.48
2023-05-22T07:35:47.239Z,22.71
2023-05-22T07:38:14.029Z,22.91
2023-05-22T07:40:47.730Z,23.07
2023-05-22T07:43:15.579Z,23.16
2023-05-22T07:45:44.067Z,23.15
2023-05-22T07:48:13.182Z,23.27
2023-05-22T07:50:39.690Z,23.48
2023-05-22T07:53:06.614Z,23.73
2023-05-22T07:55:36.833Z,23.74
2023-05-22T07:58:04.219Z,23.76
2023-05-22T08:00:35.065Z,24.08
2023-05-22T08:03:01.611Z,24.40
2023-05-22T08:05:28.159Z,24.66
2023-05-22T08:07:54.660Z,24.57
2023-05-22T08:10:21.258Z,24.58
2023-05-22T08:12:47.801Z,24.70
2023-05-22T08:15:14.356Z,24.64
2023-05-22T08:17:40.942Z,24.71
2023-05-22T08:20:09.301Z,24.67
2023-05-22T08:22:37.431Z,24.72
2023-05-22T08:25:04.313Z,24.43
2023-05-22T08:27:30.802Z,24.42
2023-05-22T08:29:57.265Z,24.41
2023-05-22T08:32:23.832Z,24.30
2023-05-22T08:34:50.500Z,24.15
2023-05-22T08:37:16.975Z,24.39
2023-05-22T08:39:43.448Z,24.32
2023-05-22T08:42:09.903Z,24.62
2023-05-22T08:44:36.607Z,24.81
2023-05-22T08:47:09.759Z,25.22
2023-05-22T08:49:38.868Z,25.37
2023-05-22T08:52:18.491Z,25.30
2023-05-22T08:54:54.603Z,25.44
2023-05-22T08:57:21.800Z,25.76
2023-05-22T08:59:48.377Z,25.73
2023-05-22T09:02:16.917Z,25.70
2023-05-22T09:04:43.539Z,25.84
2023-05-22T09:07:10.127Z,26.10
2023-05-22T09:09:37.789Z,26.06
2023-05-22T09:12:09.118Z,25.83
2023-05-22T09:14:40.287Z,25.77
2023-05-22T09:17:08.079Z,25.57
2023-05-22T09:19:34.782Z,25.89
2023-05-22T09:22:05.312Z,25.80
2023-05-22T09:24:38.520Z,25.31
2023-05-22T09:27:08.504Z,25.62
2023-05-22T09:29:49.352Z,25.75
2023-05-22T09:32:17.372Z,25.66
2023-05-22T09:34:45.119Z,25.67
2023-05-22T09:37:12.239Z,25.77
2023-05-22T09:39:41.090Z,25.66
2023-05-22T09:42:12.767Z,25.91
2023-05-22T09:44:39.442Z,25.95
2023-05-22T09:47:06.512Z,26.08
2023-05-22T09:49:43.327Z,26.15
2023-05-22T09:52:12.423Z,26.19
2023-05-22T09:54:47.614Z,26.13
2023-05-22T09:57:20.720Z,26.05
2023-05-22T09:59:54.524Z,26.11
2023-05-22T10:02:25.623Z,26.19
2023-05-22T10:04:53.340Z,26.21
2023-05-22T10:07:23.330Z,26.20
2023-05-22T10:09:59.653Z,26.43
2023-05-22T10:12:28.548Z,26.55
2023-05-22T10:14:55.662Z,26.65
2023-05-22T10:17:23.850Z,26.67
2023-05-22T10:19:51.733Z,26.44
2023-05-22T10:22:20.924Z,26.60
2023-05-22T10:24:48.338Z,26.77
2023-05-22T10:27:14.936Z,26.44
2023-05-22T10:29:50.566Z,26.62
2023-05-22T10:32:41.342Z,26.59
2023-05-22T10:35:30.176Z,26.26
2023-05-22T10:38:22.512Z,26.51
2023-05-22T10:40:49.895Z,26.74
2023-05-22T10:43:16.437Z,26.87
2023-05-22T10:45:46.463Z,26.77
2023-05-22T10:48:13.023Z,26.90
2023-05-22T10:50:40.240Z,26.74
2023-05-22T10:53:26.289Z,26.76
2023-05-22T10:55:54.983Z,26.44
2023-05-22T10:58:36.416Z,26.47
2023-05-22T11:01:20.501Z,26.61
2023-05-22T11:03:59.087Z,26.77
2023-05-22T11:06:46.038Z,26.58
2023-05-22T11:09:19.245Z,26.48
2023-05-22T11:11:46.777Z,26.54
2023-05-22T11:14:17.240Z,26.43
2023-05-22T11:16:43.778Z,26.53
2023-05-22T11:19:22.885Z,26.47
2023-05-22T11:21:50.629Z,26.27
2023-05-22T11:24:18.780Z,26.24
2023-05-22T11:27:01.542Z,26.24
2023-05-22T11:29:29.231Z,26.19
2023-05-22T11:31:57.102Z,26.43
2023-05-22T11:34:24.663Z,26.51
2023-05-22T11:36:52.772Z,26.76
2023-05-22T11:39:19.221Z,26.71
2023-05-22T11:41:45.690Z,26.69
2023-05-22T11:44:12.155Z,26.57
2023-05-22T11:46:38.904Z,26.73
2023-05-22T11:49:06.582Z,26.85
2023-05-22T11:51:33.297Z,26.72
2023-05-22T11:53:59.769Z,26.74
2023-05-22T11:56:26.368Z,27.17
2023-05-22T11:58:53.222Z,27.21
2023-05-22T12:01:19.756Z,27.21
2023-05-22T12:03:46.578Z,26.96
2023-05-22T12:06:15.153Z,27.17
2023-05-22T12:08:43.934Z,27.24
2023-05-22T12:11:11.633Z,27.23
2023-05-22T12:13:39.054Z,27.15
2023-05-22T12:16:23.852Z,27.37
2023-05-22T12:18:54.293Z,27.49
2023-05-22T12:21:21.050Z,27.28
2023-05-22T12:23:50.006Z,27.54
2023-05-22T12:26:17.202Z,27.49
2023-05-22T12:28:44.464Z,27.49
2023-05-22T12:31:11.199Z,27.47
2023-05-22T12:33:39.656Z,27.33
2023-05-22T12:36:09.396Z,27.61
2023-05-22T12:38:37.704Z,27.69
2023-05-22T12:41:04.177Z,27.53
2023-05-22T12:43:30.667Z,27.93
2023-05-22T12:45:57.325Z,28.16
2023-05-22T12:48:23.879Z,28.01
2023-05-22T12:50:50.684Z,27.98
2023-05-22T12:53:17.164Z,28.26
2023-05-22T12:55:43.742Z,27.69
2023-05-22T12:58:10.225Z,27.76
2023-05-22T13:00:36.751Z,27.72
2023-05-22T13:03:03.894Z,27.70
2023-05-22T13:05:30.518Z,27.62
2023-05-22T13:07:57.046Z,27.73
2023-05-22T13:10:23.569Z,27.96
2023-05-22T13:12:51.602Z,28.15
2023-05-22T13:15:18.618Z,27.83
2023-05-22T13:17:45.723Z,28.08
2023-05-22T13:20:13.070Z,28.15
2023-05-22T13:22:40.184Z,28.30
2023-05-22T13:25:06.841Z,28.27
2023-05-22T13:27:34.036Z,28.08
2023-05-22T13:30:00.656Z,28.12
2023-05-22T13:32:27.197Z,28.46
2023-05-22T13:34:53.715Z,28.34
2023-05-22T13:37:20.628Z,28.39
2023-05-22T13:39:47.116Z,28.40
2023-05-22T13:42:13.612Z,27.85
2023-05-22T13:44:40.052Z,27.97
2023-05-22T13:47:06.669Z,27.78
2023-05-22T13:49:33.157Z,28.51
2023-05-22T13:51:59.676Z,28.11
2023-05-22T13:54:26.580Z,28.03
2023-05-22T13:56:53.069Z,28.18
2023-05-22T13:59:19.531Z,28.37
2023-05-22T14:01:45.975Z,28.57
2023-05-22T14:04:12.434Z,28.40
2023-05-22T14:06:38.935Z,28.07
2023-05-22T14:09:07.250Z,27.99
2023-05-22T14:11:33.964Z,28.07
2023-05-22T14:14:00.585Z,28.09
2023-05-22T14:16:27.094Z,28.29
2023-05-22T14:18:53.586Z,28.02
2023-05-22T14:21:20.071Z,27.71
2023-05-22T14:23:46.617Z,28.08
2023-05-22T14:26:14.378Z,28.16
2023-05-22T14:28:41.365Z,27.72
2023-05-22T14:31:07.890Z,27.88
2023-05-22T14:33:35.720Z,27.79
2023-05-22T14:36:02.566Z,27.84
2023-05-22T14:38:32.952Z,27.85
2023-05-22T14:41:00.322Z,27.73
2023-05-22T14:43:26.962Z,27.96
2023-05-22T14:45:54.208Z,28.00
2023-05-22T14:48:25.886Z,27.74
2023-05-22T14:50:55.466Z,27.64
2023-05-22T14:53:22.203Z,27.64
2023-05-22T14:55:48.733Z,27.65
2023-05-22T14:58:15.248Z,27.41
2023-05-22T15:00:46.130Z,27.71
2023-05-22T15:03:12.828Z,27.63
2023-05-22T15:05:39.606Z,27.53
2023-05-22T15:08:06.219Z,27.46
2023-05-22T15:10:32.735Z,27.49
2023-05-22T15:12:59.186Z,27.39
2023-05-22T15:15:25.713Z,27.35
2023-05-22T15:17:52.227Z,27.41
2023-05-22T15:20:18.752Z,27.44
2023-05-22T15:22:45.432Z,27.36
2023-05-22T15:25:14.889Z,27.62
2023-05-22T15:27:42.558Z,27.48
2023-05-22T15:30:09.941Z,27.51
2023-05-22T15:32:37.297Z,27.54
2023-05-22T15:35:05.555Z,27.33
2023-05-22T15:37:33.660Z,27.14
2023-05-22T15:40:01.834Z,27.17
2023-05-22T15:42:28.634Z,27.19
2023-05-22T15:44:55.317Z,26.95
2023-05-22T15:47:21.815Z,26.94
2023-05-22T15:49:48.271Z,27.17
2023-05-22T15:52:14.747Z,27.00
2023-05-22T15:54:41.209Z,26.76
2023-05-22T15:57:07.667Z,26.68
2023-05-22T15:59:34.140Z,26.87
2023-05-22T16:02:00.599Z,26.93
2023-05-22T16:04:27.042Z,26.75
2023-05-22T16:06:53.617Z,26.79
2023-05-22T16:09:20.183Z,26.94
2023-05-22T16:11:46.653Z,27.01
2023-05-22T16:14:13.459Z,26.78
2023-05-22T16:16:40.053Z,26.71
2023-05-22T16:19:06.570Z,26.61
2023-05-22T16:21:33.077Z,26.83
2023-05-22T16:23:59.610Z,26.69
2023-05-22T16:26:26.845Z,26.70
2023-05-22T16:28:53.349Z,26.60
2023-05-22T16:31:20.002Z,26.43
2023-05-22T16:33:46.554Z,26.55
2023-05-22T16:36:13.051Z,26.44
2023-05-22T16:38:39.523Z,26.54
2023-05-22T16:41:06.002Z,26.63
2023-05-22T16:43:32.481Z,26.50
2023-05-22T16:45:58.931Z,26.38
2023-05-22T16:48:25.468Z,26.41
2023-05-22T16:50:51.930Z,26.48
2023-05-22T16:53:18.380Z,26.49
2023-05-22T16:55:44.826Z,26.32
2023-05-22T16:58:12.660Z,26.25
2023-05-22T17:00:40.135Z,26.38
2023-05-22T17:03:08.094Z,26.36
2023-05-22T17:05:35.765Z,26.24
2023-05-22T17:08:02.215Z,26.30
2023-05-22T17:10:28.809Z,26.16
2023-05-22T17:12:55.336Z,26.25
2023-05-22T17:15:21.813Z,26.25
2023-05-22T17:17:48.316Z,26.17
2023-05-22T17:20:14.805Z,26.10
2023-05-22T17:22:42.358Z,26.13
2023-05-22T17:25:09.239Z,26.17
2023-05-22T17:27:36.779Z,26.08
2023-05-22T17:30:04.812Z,25.96
2023-05-22T17:32:31.362Z,25.95
2023-05-22T17:34:57.933Z,26.02
2023-05-22T17:37:24.386Z,25.90
2023-05-22T17:39:51.910Z,25.90
2023-05-22T17:42:18.373Z,25.93
2023-05-22T17:44:45.019Z,25.95
2023-05-22T17:47:13.246Z,25.76
2023-05-22T17:49:39.812Z,25.86
2023-05-22T17:52:08.412Z,25.70
2023-05-22T17:54:35.453Z,25.60
2023-05-22T17:57:03.997Z,25.52
2023-05-22T17:59:32.319Z,25.62
2023-05-22T18:01:58.930Z,25.62
2023-05-22T18:04:25.508Z,25.46
2023-05-22T18:06:52.192Z,25.23
2023-05-22T18:09:18.656Z,25.25
2023-05-22T18:11:45.126Z,25.10
2023-05-22T18:14:11.608Z,24.82
2023-05-22T18:16:38.097Z,24.77
2023-05-22T18:19:04.634Z,24.94
2023-05-22T18:21:32.239Z,24.94
2023-05-22T18:23:58.746Z,24.70
2023-05-22T18:26:26.668Z,24.59
2023-05-22T18:28:53.212Z,24.60
2023-05-22T18:31:19.753Z,24.61
2023-05-22T18:33:46.576Z,24.57
2023-05-22T18:36:13.226Z,24.42
2023-05-22T18:38:39.658Z,24.21
2023-05-22T18:41:06.589Z,24.18
2023-05-22T18:43:33.218Z,24.00
2023-05-22T18:45:59.698Z,23.81
2023-05-22T18:48:28.111Z,23.81
2023-05-22T18:50:57.239Z,23.64
2023-05-22T18:53:25.149Z,23.60
2023-05-22T18:55:52.369Z,23.48
2023-05-22T18:58:18.855Z,23.36
2023-05-22T19:00:45.673Z,23.44
2023-05-22T19:03:12.327Z,23.36
2023-05-22T19:05:38.805Z,23.38
2023-05-22T19:08:05.716Z,23.20
2023-05-22T19:10:33.060Z,23.14
2023-05-22T19:12:59.542Z,23.24
2023-05-22T19:15:26.098Z,23.22
2023-05-22T19:17:52.741Z,23.26
2023-05-22T19:20:19.278Z,23.31
2023-05-22T19:22:45.732Z,23.16
2023-05-22T19:25:12.182Z,23.06
2023-05-22T19:27:39.423Z,22.95
2023-05-22T19:30:06.739Z,22.86
2023-05-22T19:32:33.233Z,22.68
2023-05-22T19:34:59.748Z,22.69
2023-05-22T19:37:26.210Z,22.57
2023-05-22T19:39:53.874Z,22.58
2023-05-22T19:42:20.319Z,22.62
2023-05-22T19:44:47.073Z,22.62
2023-05-22T19:47:13.559Z,22.59
2023-05-22T19:49:40.040Z,22.57
2023-05-22T19:52:06.654Z,22.54
2023-05-22T19:54:33.152Z,22.43
2023-05-22T19:56:59.636Z,22.49
2023-05-22T19:59:26.832Z,22.44
2023-05-22T20:01:53.879Z,22.43
2023-05-22T20:04:21.433Z,22.42
2023-05-22T20:06:48.447Z,22.33
2023-05-22T20:09:15.372Z,22.28
2023-05-22T20:11:41.834Z,22.25
2023-05-22T20:14:08.362Z,22.23
2023-05-22T20:16:34.968Z,22.26
2023-05-22T20:19:02.503Z,22.20
2023-05-22T20:21:29.056Z,22.22
2023-05-22T20:23:55.630Z,22.17
2023-05-22T20:26:22.176Z,22.14
2023-05-22T20:28:48.705Z,22.03
2023-05-22T20:31:15.208Z,22.01
2023-05-22T20:33:41.872Z,21.94
2023-05-22T20:36:08.651Z,21.89
2023-05-22T20:38:35.148Z,21.76
2023-05-22T20:41:02.566Z,21.54
2023-05-22T20:43:30.686Z,21.50
2023-05-22T20:45:57.462Z,21.44
2023-05-22T20:48:24.095Z,21.45
2023-05-22T20:50:50.679Z,21.48
2023-05-22T20:53:17.593Z,21.45
2023-05-22T20:55:44.099Z,21.40
2023-05-22T20:58:10.586Z,21.32
2023-05-22T21:00:37.052Z,21.26
2023-05-22T21:03:03.670Z,21.22
2023-05-22T21:05:30.251Z,21.08
2023-05-22T21:07:57.790Z,21.16
2023-05-22T21:10:24.278Z,21.17
2023-05-22T21:12:50.782Z,21.20
2023-05-22T21:15:17.248Z,21.07
2023-05-22T21:17:43.832Z,21.05
2023-05-22T21:20:10.664Z,21.01
2023-05-22T21:22:37.113Z,20.96
2023-05-22T21:25:03.782Z,20.94
2023-05-22T21:27:30.310Z,20.78
2023-05-22T21:29:56.792Z,20.67
2023-05-22T21:32:23.259Z,20.69
2023-05-22T21:34:49.792Z,20.73
2023-05-22T21:37:16.248Z,20.72
2023-05-22T21:39:42.715Z,20.74
2023-05-22T21:42:09.341Z,20.69
2023-05-22T21:44:35.974Z,20.78
2023-05-22T21:47:02.535Z,20.71
2023-05-22T21:49:29.130Z,20.71
2023-05-22T21:51:55.896Z,20.55
2023-05-22T21:54:22.343Z,20.53
2023-05-22T21:56:48.787Z,20.46
2023-05-22T21:59:15.263Z,20.30
2023-05-22T22:01:43.445Z,20.38
2023-05-22T22:04:10.048Z,20.28
2023-05-22T22:06:36.945Z,20.37
2023-05-22T22:09:03.851Z,20.44
2023-05-22T22:11:30.349Z,20.44
2023-05-22T22:13:56.812Z,20.38
2023-05-22T22:16:23.530Z,20.45
2023-05-22T22:18:50.327Z,20.44
2023-05-22T22:21:26.374Z,20.47
2023-05-22T22:23:52.837Z,20.45
2023-05-22T22:26:19.301Z,20.41
2023-05-22T22:28:46.264Z,20.47
2023-05-22T22:31:12.714Z,20.44
2023-05-22T22:33:39.189Z,20.41
2023-05-22T22:36:05.836Z,20.37
2023-05-22T22:38:32.952Z,20.36
2023-05-22T22:41:00.172Z,20.39
2023-05-22T22:43:26.713Z,20.28
2023-05-22T22:45:54.197Z,20.32
2023-05-22T22:48:22.389Z,20.26
2023-05-22T22:50:49.377Z,20.19
2023-05-22T22:53:15.850Z,20.12
2023-05-22T22:55:42.657Z,20.17
2023-05-22T22:58:09.572Z,20.32
2023-05-22T23:00:39.172Z,20.30
2023-05-22T23:03:05.691Z,20.32
2023-05-22T23:05:32.312Z,20.35
2023-05-22T23:08:01.875Z,20.40
2023-05-22T23:10:28.919Z,20.33
2023-05-22T23:12:55.895Z,20.33
2023-05-22T23:15:22.806Z,20.31
2023-05-22T23:17:51.586Z,20.34
2023-05-22T23:20:18.379Z,20.35
2023-05-22T23:22:44.813Z,20.17
2023-05-22T23:25:11.254Z,20.27
2023-05-22T23:27:37.727Z,20.24
2023-05-22T23:30:04.972Z,20.23
2023-05-22T23:32:31.613Z,20.25
2023-05-22T23:34:58.099Z,20.23
2023-05-22T23:37:24.575Z,20.21
2023-05-22T23:39:51.129Z,20.13
2023-05-22T23:42:17.667Z,20.17
2023-05-22T23:44:44.117Z,20.18
2023-05-22T23:47:10.697Z,20.15
2023-05-22T23:49:37.216Z,20.09
2023-05-22T23:52:03.797Z,20.06
2023-05-22T23:54:30.245Z,20.14
2023-05-22T23:56:56.685Z,20.10
2023-05-22T23:59:23.151Z,20.03
